createdAt,value
2023-02-02T00:00:56.713Z,0.00
2023-02-02T00:02:58.420Z,0.00
2023-02-02T00:05:01.834Z,0.00
2023-02-02T00:07:05.159Z,0.00
2023-02-02T00:09:06.873Z,0.00
2023-02-02T00:11:09.960Z,0.00
2023-02-02T00:13:12.715Z,0.00
2023-02-02T00:15:14.744Z,0.00
2023-02-02T00:17:16.814Z,0.00
2023-02-02T00:19:20.406Z,0.00
2023-02-02T00:21:22.499Z,0.00
2023-02-02T00:23:24.116Z,0.00
2023-02-02T00:25:28.490Z,0.00
2023-02-02T00:27:31.404Z,0.00
2023-02-02T00:29:33.276Z,0.00
2023-02-02T00:31:35.305Z,0.00
2023-02-02T00:33:37.216Z,0.00
2023-02-02T00:35:41.646Z,0.00
2023-02-02T00:37:43.664Z,0.00
2023-02-02T00:39:45.533Z,0.00
2023-02-02T00:41:48.194Z,0.00
2023-02-02T00:43:51.373Z,0.00
2023-02-02T00:45:53.033Z,0.00
2023-02-02T00:47:54.788Z,0.00
2023-02-02T00:49:56.806Z,0.00
2023-02-02T00:51:58.835Z,0.00
2023-02-02T00:54:01.480Z,0.00
2023-02-02T00:56:03.447Z,0.00
2023-02-02T00:58:05.178Z,0.00
2023-02-02T01:00:14.546Z,0.00
2023-02-02T01:02:16.296Z,0.00
2023-02-02T01:04:19.740Z,0.00
2023-02-02T01:06:21.986Z,0.00
2023-02-02T01:08:24.016Z,0.00
2023-02-02T01:10:25.807Z,0.00
2023-02-02T01:12:27.695Z,0.00
2023-02-02T01:14:29.362Z,0.00
2023-02-02T01:16:32.999Z,0.00
2023-02-02T01:18:34.849Z,0.00
2023-02-02T01:20:36.538Z,0.00
2023-02-02T01:22:38.573Z,0.00
2023-02-02T01:24:40.593Z,0.00
2023-02-02T01:26:42.637Z,0.00
2023-02-02T01:28:44.907Z,0.00
2023-02-02T01:30:46.566Z,0.00
2023-02-02T01:32:49.999Z,0.00
2023-02-02T01:34:51.598Z,0.00
2023-02-02T01:36:53.274Z,0.00
2023-02-02T01:38:56.868Z,0.00
2023-02-02T01:40:59.135Z,0.00
2023-02-02T01:43:00.828Z,0.00
2023-02-02T01:45:22.172Z,0.00
2023-02-02T01:47:30.187Z,0.00
2023-02-02T01:49:33.699Z,0.00
2023-02-02T01:51:41.680Z,0.00
2023-02-02T01:53:46.159Z,0.00
2023-02-02T01:55:55.955Z,0.00
2023-02-02T01:58:00.865Z,0.00
2023-02-02T02:00:07.805Z,0.00
2023-02-02T02:02:10.873Z,0.00
2023-02-02T02:04:13.200Z,0.00
2023-02-02T02:06:19.949Z,0.00
2023-02-02T02:08:29.765Z,0.00
2023-02-02T02:10:31.676Z,0.00
2023-02-02T02:12:33.405Z,0.00
2023-02-02T02:14:35.055Z,0.00
2023-02-02T02:16:53.154Z,0.00
2023-02-02T02:19:06.320Z,0.00
2023-02-02T02:21:29.677Z,0.00
2023-02-02T02:24:14.623Z,0.00
2023-02-02T02:26:48.033Z,0.00
2023-02-02T02:29:18.158Z,0.00
2023-02-02T02:31:49.208Z,0.33
2023-02-02T02:34:00.201Z,0.00
2023-02-02T02:36:12.824Z,0.00
2023-02-02T02:38:24.525Z,1.00
2023-02-02T02:40:32.361Z,0.33
2023-02-02T02:42:39.377Z,0.33
2023-02-02T02:44:42.150Z,0.00
2023-02-02T02:46:44.456Z,0.00
2023-02-02T02:48:46.498Z,0.00
2023-02-02T02:50:49.875Z,0.00
2023-02-02T02:52:59.893Z,0.00
2023-02-02T02:55:02.485Z,1.00
2023-02-02T02:57:21.249Z,0.00
2023-02-02T02:59:34.113Z,0.00
2023-02-02T03:01:44.330Z,0.00
2023-02-02T03:03:57.752Z,0.00
2023-02-02T03:06:08.522Z,1.00
2023-02-02T03:08:15.968Z,0.00
2023-02-02T03:10:22.132Z,0.00
2023-02-02T03:12:24.401Z,0.00
2023-02-02T03:14:26.097Z,0.00
2023-02-02T03:16:28.395Z,0.00
2023-02-02T03:18:32.915Z,0.00
2023-02-02T03:20:34.563Z,0.00
2023-02-02T03:22:38.582Z,0.00
2023-02-02T03:24:40.478Z,1.00
2023-02-02T03:26:43.234Z,0.00
2023-02-02T03:28:45.021Z,0.00
2023-02-02T03:30:49.035Z,0.33
2023-02-02T03:32:52.869Z,1.00
2023-02-02T03:34:54.724Z,0.00
2023-02-02T03:36:56.499Z,0.00
2023-02-02T03:38:59.697Z,0.00
2023-02-02T03:41:01.761Z,0.00
2023-02-02T03:43:03.519Z,0.00
2023-02-02T03:45:06.704Z,0.00
2023-02-02T03:47:08.502Z,0.00
2023-02-02T03:49:10.234Z,0.00
2023-02-02T03:51:13.924Z,0.00
2023-02-02T03:53:15.816Z,0.00
2023-02-02T03:55:20.252Z,0.00
2023-02-02T03:57:22.232Z,0.00
2023-02-02T03:59:24.338Z,0.00
2023-02-02T04:01:30.103Z,0.00
2023-02-02T04:03:31.884Z,0.00
2023-02-02T04:05:33.520Z,0.00
2023-02-02T04:07:35.276Z,0.00
2023-02-02T04:09:36.987Z,0.00
2023-02-02T04:11:42.671Z,0.67
2023-02-02T04:13:44.708Z,1.00
2023-02-02T04:15:47.028Z,1.00
2023-02-02T04:17:48.887Z,1.00
2023-02-02T04:19:50.659Z,0.00
2023-02-02T04:21:53.225Z,0.00
2023-02-02T04:23:54.990Z,1.00
2023-02-02T04:25:58.885Z,0.00
2023-02-02T04:28:02.168Z,0.00
2023-02-02T04:30:04.717Z,0.00
2023-02-02T04:32:06.881Z,0.00
2023-02-02T04:34:09.227Z,1.00
2023-02-02T04:36:11.018Z,0.00
2023-02-02T04:38:13.500Z,0.33
2023-02-02T04:40:17.729Z,0.33
2023-02-02T04:42:19.387Z,0.00
2023-02-02T04:44:22.664Z,1.00
2023-02-02T04:46:24.291Z,0.33
2023-02-02T04:48:26.330Z,1.00
2023-02-02T04:50:28.495Z,1.00
2023-02-02T04:52:30.139Z,1.00
2023-02-02T04:54:32.622Z,0.00
2023-02-02T04:56:34.993Z,0.00
2023-02-02T04:58:36.702Z,0.00
2023-02-02T05:00:40.296Z,1.00
2023-02-02T05:02:43.898Z,0.00
2023-02-02T05:04:47.223Z,0.00
2023-02-02T05:06:48.847Z,0.00
2023-02-02T05:08:50.783Z,0.00
2023-02-02T05:10:52.502Z,0.67
2023-02-02T05:12:54.908Z,0.00
2023-02-02T05:14:56.520Z,0.33
2023-02-02T05:16:59.859Z,0.00
2023-02-02T05:19:01.451Z,0.00
2023-02-02T05:21:03.801Z,2.00
2023-02-02T05:23:05.709Z,0.00
2023-02-02T05:25:09.172Z,0.67
2023-02-02T05:27:10.779Z,0.00
2023-02-02T05:29:12.418Z,1.00
2023-02-02T05:31:14.594Z,0.00
2023-02-02T05:33:18.424Z,0.00
2023-02-02T05:35:19.975Z,0.00
2023-02-02T05:37:21.720Z,0.00
2023-02-02T05:39:23.746Z,0.67
2023-02-02T05:41:25.354Z,0.00
2023-02-02T05:43:28.833Z,0.00
2023-02-02T05:45:31.197Z,0.00
2023-02-02T05:47:33.026Z,0.00
2023-02-02T05:49:36.548Z,0.00
2023-02-02T05:51:42.844Z,1.67
2023-02-02T05:53:45.209Z,2.00
2023-02-02T05:55:46.847Z,1.00
2023-02-02T05:57:49.086Z,1.00
2023-02-02T05:59:51.527Z,1.00
2023-02-02T06:01:53.130Z,1.00
2023-02-02T06:03:55.924Z,1.00
2023-02-02T06:05:59.273Z,0.00
2023-02-02T06:08:00.903Z,0.00
2023-02-02T06:10:04.438Z,0.00
2023-02-02T06:12:06.821Z,3.33
2023-02-02T06:14:08.554Z,1.00
2023-02-02T06:16:10.807Z,0.33
2023-02-02T06:18:14.034Z,2.67
2023-02-02T06:20:16.143Z,0.33
2023-02-02T06:22:19.097Z,0.00
2023-02-02T06:24:21.863Z,1.00
2023-02-02T06:26:25.731Z,0.33
2023-02-02T06:28:27.516Z,0.00
2023-02-02T06:30:29.815Z,0.67
2023-02-02T06:32:32.152Z,0.00
2023-02-02T06:34:33.784Z,0.67
2023-02-02T06:36:35.518Z,0.00
2023-02-02T06:38:38.832Z,0.00
2023-02-02T06:40:40.430Z,0.00
2023-02-02T06:42:42.240Z,0.00
2023-02-02T06:44:44.068Z,0.00
2023-02-02T06:46:45.826Z,0.00
2023-02-02T06:48:47.879Z,0.00
2023-02-02T06:50:50.761Z,0.00
2023-02-02T06:52:53.389Z,0.00
2023-02-02T06:54:56.694Z,0.00
2023-02-02T06:56:58.450Z,0.00
2023-02-02T06:59:00.357Z,0.00
2023-02-02T07:01:03.078Z,0.00
2023-02-02T07:03:04.952Z,0.00
2023-02-02T07:05:06.887Z,0.33
2023-02-02T07:07:09.016Z,0.00
2023-02-02T07:09:11.269Z,0.00
2023-02-02T07:11:16.603Z,0.67
2023-02-02T07:13:18.905Z,0.00
2023-02-02T07:15:20.516Z,0.00
2023-02-02T07:17:22.280Z,0.00
2023-02-02T07:19:23.852Z,0.00
2023-02-02T07:21:27.372Z,0.00
2023-02-02T07:23:30.376Z,0.00
2023-02-02T07:25:33.289Z,0.00
2023-02-02T07:27:39.740Z,0.00
2023-02-02T07:29:43.638Z,0.00
2023-02-02T07:31:45.402Z,0.00
2023-02-02T07:33:49.774Z,1.00
2023-02-02T07:35:52.353Z,0.00
2023-02-02T07:37:55.393Z,0.00
2023-02-02T07:39:58.472Z,0.67
2023-02-02T07:42:00.364Z,0.33
2023-02-02T07:44:04.717Z,0.00
2023-02-02T07:46:08.225Z,0.00
2023-02-02T07:48:09.864Z,0.33
2023-02-02T07:50:11.667Z,0.00
2023-02-02T07:52:13.475Z,0.00
2023-02-02T07:54:16.367Z,0.00
2023-02-02T07:56:20.866Z,0.00
2023-02-02T07:58:22.647Z,0.00
2023-02-02T08:00:26.675Z,0.00
2023-02-02T08:02:28.528Z,0.00
2023-02-02T08:04:30.428Z,0.00
2023-02-02T08:06:34.172Z,0.00
2023-02-02T08:08:38.487Z,0.00
2023-02-02T08:10:40.548Z,0.00
2023-02-02T08:12:42.662Z,0.00
2023-02-02T08:14:46.529Z,0.00
2023-02-02T08:16:50.066Z,0.00
2023-02-02T08:18:52.168Z,0.00
2023-02-02T08:20:53.795Z,0.00
2023-02-02T08:22:56.425Z,0.00
2023-02-02T08:24:59.481Z,0.00
2023-02-02T08:27:04.009Z,0.00
2023-02-02T08:29:07.976Z,0.00
2023-02-02T08:31:13.273Z,0.00
2023-02-02T08:33:16.416Z,0.00
2023-02-02T08:35:17.979Z,0.00
2023-02-02T08:37:19.618Z,0.00
2023-02-02T08:39:21.271Z,1.00
2023-02-02T08:41:24.590Z,0.00
2023-02-02T08:43:26.229Z,0.00
2023-02-02T08:46:01.323Z,0.00
2023-02-02T08:47:58.884Z,0.00
2023-02-02T08:50:10.673Z,0.00
2023-02-02T08:52:12.481Z,0.00
2023-02-02T08:54:14.346Z,1.67
2023-02-02T08:56:18.518Z,0.00
2023-02-02T08:58:20.128Z,0.00
2023-02-02T09:00:22.643Z,0.00
2023-02-02T09:02:24.369Z,1.00
2023-02-02T09:04:26.472Z,0.00
2023-02-02T09:06:32.286Z,0.00
2023-02-02T09:08:34.380Z,0.00
2023-02-02T09:10:36.931Z,0.00
2023-02-02T09:12:38.674Z,0.00
2023-02-02T09:14:40.766Z,0.00
2023-02-02T09:16:43.127Z,0.00
2023-02-02T09:18:46.416Z,0.00
2023-02-02T09:20:48.961Z,0.00
2023-02-02T09:22:55.038Z,0.00
2023-02-02T09:24:56.690Z,0.00
2023-02-02T09:26:58.572Z,0.00
2023-02-02T09:29:02.428Z,0.00
2023-02-02T09:31:06.056Z,0.00
2023-02-02T09:33:07.700Z,0.00
2023-02-02T09:35:12.147Z,0.00
2023-02-02T09:37:13.769Z,0.00
2023-02-02T09:39:16.834Z,0.00
2023-02-02T09:42:02.941Z,0.00
2023-02-02T09:44:17.453Z,0.00
2023-02-02T09:46:33.162Z,0.00
2023-02-02T09:48:46.107Z,0.00
2023-02-02T09:50:53.312Z,0.00
2023-02-02T09:53:01.307Z,0.00
2023-02-02T09:55:12.217Z,0.00
2023-02-02T09:57:18.186Z,0.00
2023-02-02T09:59:24.519Z,0.00
2023-02-02T10:01:31.719Z,0.00
2023-02-02T10:03:37.878Z,0.00
2023-02-02T10:05:49.189Z,0.00
2023-02-02T10:07:56.740Z,0.00
2023-02-02T10:10:02.514Z,0.00
2023-02-02T10:12:18.624Z,0.00
2023-02-02T10:14:27.713Z,0.00
2023-02-02T10:16:31.754Z,0.00
2023-02-02T10:18:45.576Z,0.00
2023-02-02T10:20:54.402Z,0.00
2023-02-02T10:23:00.332Z,0.00
2023-02-02T10:25:02.618Z,0.00
2023-02-02T10:27:11.912Z,0.00
2023-02-02T10:29:17.263Z,0.00
2023-02-02T10:31:34.868Z,0.00
2023-02-02T10:33:39.571Z,0.00
2023-02-02T10:35:49.785Z,0.00
2023-02-02T10:37:59.198Z,0.00
2023-02-02T10:40:12.695Z,0.00
2023-02-02T10:42:27.578Z,0.00
2023-02-02T10:44:37.413Z,0.00
2023-02-02T10:46:43.341Z,0.00
2023-02-02T10:48:49.130Z,0.00
2023-02-02T10:50:58.118Z,0.00
2023-02-02T10:53:03.404Z,0.00
2023-02-02T10:55:14.733Z,0.00
2023-02-02T10:57:35.633Z,0.00
2023-02-02T10:59:44.810Z,0.00
2023-02-02T11:01:51.130Z,0.00
2023-02-02T11:03:54.188Z,0.00
2023-02-02T11:06:06.363Z,0.00
2023-02-02T11:13:23.722Z,3.33
2023-02-02T11:17:59.503Z,0.00
2023-02-02T11:20:56.707Z,0.00
2023-02-02T11:25:43.663Z,0.00
2023-02-02T11:27:45.350Z,0.00
2023-02-02T11:29:52.249Z,0.00
2023-02-02T11:31:54.167Z,0.00
2023-02-02T11:34:09.137Z,0.00
2023-02-02T11:36:19.987Z,0.00
2023-02-02T11:38:22.080Z,0.00
2023-02-02T11:40:36.915Z,0.00
2023-02-02T11:42:46.389Z,0.00
2023-02-02T11:44:52.036Z,0.00
2023-02-02T11:46:54.460Z,0.00
2023-02-02T11:49:00.473Z,0.00
2023-02-02T11:51:03.561Z,0.00
2023-02-02T11:53:05.472Z,0.00
2023-02-02T11:55:15.279Z,0.00
2023-02-02T11:57:19.522Z,0.00
2023-02-02T11:59:32.694Z,0.00
2023-02-02T12:01:38.310Z,0.00
2023-02-02T12:03:40.064Z,0.00
2023-02-02T12:05:42.044Z,0.00
2023-02-02T12:07:44.517Z,0.00
2023-02-02T12:09:46.685Z,0.00
2023-02-02T12:12:01.075Z,0.00
2023-02-02T12:14:17.296Z,0.00
2023-02-02T12:16:37.877Z,0.00
2023-02-02T12:18:56.206Z,0.00
2023-02-02T12:21:04.856Z,0.00
2023-02-02T12:23:25.303Z,0.00
2023-02-02T12:25:55.537Z,0.00
2023-02-02T12:28:06.172Z,0.00
2023-02-02T12:30:22.046Z,0.00
2023-02-02T12:32:32.057Z,0.00
2023-02-02T12:34:48.371Z,0.00
2023-02-02T12:36:58.341Z,0.00
2023-02-02T12:39:10.390Z,0.00
2023-02-02T12:41:27.293Z,0.00
2023-02-02T12:43:39.905Z,0.00
2023-02-02T12:46:07.264Z,0.00
2023-02-02T12:48:21.006Z,0.00
2023-02-02T12:50:31.765Z,0.00
2023-02-02T12:52:49.301Z,0.25
2023-02-02T12:55:03.883Z,0.00
2023-02-02T12:57:15.015Z,0.00
2023-02-02T12:59:29.071Z,0.00
2023-02-02T13:01:51.735Z,0.00
2023-02-02T13:04:11.232Z,0.00
2023-02-02T13:06:44.068Z,0.00
2023-02-02T13:08:53.247Z,0.00
2023-02-02T13:11:01.558Z,0.00
2023-02-02T13:13:09.467Z,0.00
2023-02-02T13:15:18.680Z,0.00
2023-02-02T13:17:25.735Z,0.00
2023-02-02T13:19:34.474Z,0.00
2023-02-02T13:21:41.438Z,0.00
2023-02-02T13:23:47.575Z,0.00
2023-02-02T13:25:53.771Z,0.00
2023-02-02T13:27:58.569Z,0.00
2023-02-02T13:30:04.871Z,0.00
2023-02-02T13:32:16.121Z,0.00
2023-02-02T13:34:22.941Z,0.00
2023-02-02T13:36:28.893Z,0.00
2023-02-02T13:38:31.884Z,0.00
2023-02-02T13:40:38.136Z,0.00
2023-02-02T13:42:45.889Z,0.00
2023-02-02T13:44:53.964Z,0.00
2023-02-02T13:47:00.959Z,0.00
2023-02-02T13:49:09.502Z,0.00
2023-02-02T13:51:33.755Z,0.00
2023-02-02T13:53:55.953Z,0.00
2023-02-02T13:56:11.125Z,1.00
2023-02-02T13:58:30.075Z,0.00
2023-02-02T14:00:36.783Z,0.00
2023-02-02T14:02:43.224Z,0.00
2023-02-02T14:04:53.525Z,0.00
2023-02-02T14:06:57.954Z,0.00
2023-02-02T14:09:04.751Z,0.00
2023-02-02T14:11:08.100Z,0.00
2023-02-02T14:13:17.530Z,0.00
2023-02-02T14:15:19.957Z,0.00
2023-02-02T14:17:55.031Z,0.00
2023-02-02T14:19:57.580Z,0.00
2023-02-02T14:22:01.873Z,0.00
2023-02-02T14:24:43.359Z,0.00
2023-02-02T14:26:48.208Z,0.00
2023-02-02T14:28:50.582Z,0.00
2023-02-02T14:31:37.499Z,0.00
2023-02-02T14:33:40.219Z,0.00
2023-02-02T14:36:01.364Z,0.00
2023-02-02T14:38:09.888Z,0.00
2023-02-02T14:40:26.901Z,0.00
2023-02-02T14:42:48.431Z,0.00
2023-02-02T14:45:14.679Z,0.00
2023-02-02T14:47:47.505Z,0.00
2023-02-02T14:49:50.425Z,0.00
2023-02-02T14:51:56.305Z,0.00
2023-02-02T14:54:01.346Z,0.00
2023-02-02T14:56:06.496Z,0.00
2023-02-02T14:58:09.678Z,0.00
2023-02-02T15:00:21.924Z,0.00
2023-02-02T15:02:30.919Z,0.00
2023-02-02T15:04:32.576Z,0.00
2023-02-02T15:06:36.381Z,0.00
2023-02-02T15:08:38.137Z,0.00
2023-02-02T15:11:10.058Z,0.00
2023-02-02T15:13:17.258Z,0.00
2023-02-02T15:15:23.478Z,0.00
2023-02-02T15:17:33.197Z,0.00
2023-02-02T15:19:40.875Z,0.00
2023-02-02T15:21:47.875Z,0.00
2023-02-02T15:23:50.061Z,0.00
2023-02-02T15:25:56.439Z,0.00
2023-02-02T15:28:03.227Z,0.00
2023-02-02T15:30:12.593Z,0.00
2023-02-02T15:32:17.674Z,0.00
2023-02-02T15:34:23.791Z,0.00
2023-02-02T15:36:28.809Z,0.00
2023-02-02T15:38:34.339Z,0.00
2023-02-02T15:40:36.849Z,0.00
2023-02-02T15:42:44.107Z,0.00
2023-02-02T15:44:45.811Z,0.00
2023-02-02T15:46:49.645Z,0.00
2023-02-02T15:49:31.378Z,0.00
2023-02-02T15:51:35.307Z,0.00
2023-02-02T15:53:48.974Z,0.00
2023-02-02T15:55:52.738Z,0.00
2023-02-02T15:57:54.581Z,0.00
2023-02-02T15:59:56.959Z,0.00
2023-02-02T16:02:17.094Z,0.00
2023-02-02T16:04:24.022Z,0.00
2023-02-02T16:06:25.811Z,0.00
2023-02-02T16:08:29.985Z,0.00
2023-02-02T16:10:31.955Z,0.00
2023-02-02T16:12:34.787Z,0.00
2023-02-02T16:14:39.716Z,10.00
2023-02-02T16:16:41.437Z,3.33
2023-02-02T16:18:44.744Z,6.67
2023-02-02T16:20:47.305Z,34.00
2023-02-02T16:22:49.358Z,4.67
2023-02-02T16:24:55.717Z,23.33
2023-02-02T16:27:00.632Z,2.00
2023-02-02T16:29:02.525Z,1.00
2023-02-02T16:31:05.623Z,1.00
2023-02-02T16:33:27.109Z,2.00
2023-02-02T16:35:35.118Z,1.33
2023-02-02T16:37:36.755Z,1.00
2023-02-02T16:39:38.307Z,1.00
2023-02-02T16:41:39.960Z,1.00
2023-02-02T16:43:42.969Z,1.00
2023-02-02T16:45:47.631Z,1.00
2023-02-02T16:47:49.539Z,1.67
2023-02-02T16:49:51.746Z,1.00
2023-02-02T16:52:11.041Z,0.33
2023-02-02T16:54:19.088Z,0.00
2023-02-02T16:56:29.456Z,0.00
2023-02-02T16:58:34.747Z,1.00
2023-02-02T17:00:37.234Z,1.00
2023-02-02T17:02:42.179Z,0.00
2023-02-02T17:04:49.635Z,1.00
2023-02-02T17:06:53.565Z,1.00
2023-02-02T17:08:56.857Z,1.00
2023-02-02T17:11:06.293Z,1.00
2023-02-02T17:13:34.483Z,1.00
2023-02-02T17:15:36.853Z,1.33
2023-02-02T17:17:38.723Z,1.33
2023-02-02T17:19:40.506Z,1.00
2023-02-02T17:21:42.058Z,1.00
2023-02-02T17:23:44.219Z,1.00
2023-02-02T17:25:47.741Z,0.67
2023-02-02T17:27:49.769Z,1.00
2023-02-02T17:29:52.489Z,0.00
2023-02-02T17:31:54.572Z,0.00
2023-02-02T17:33:57.023Z,0.00
2023-02-02T17:35:58.644Z,1.00
2023-02-02T17:38:00.384Z,1.00
2023-02-02T17:40:02.297Z,1.00
2023-02-02T17:42:06.658Z,0.33
2023-02-02T17:44:10.089Z,2.00
2023-02-02T17:46:12.478Z,1.67
2023-02-02T17:48:16.903Z,0.00
2023-02-02T17:50:19.632Z,1.00
2023-02-02T17:52:21.270Z,2.00
2023-02-02T17:54:22.844Z,0.00
2023-02-02T17:56:24.572Z,1.00
2023-02-02T17:58:27.581Z,0.00
2023-02-02T18:00:31.330Z,1.00
2023-02-02T18:02:33.181Z,0.00
2023-02-02T18:04:35.861Z,0.67
2023-02-02T18:06:37.767Z,0.00
2023-02-02T18:08:39.897Z,1.00
2023-02-02T18:10:42.217Z,1.00
2023-02-02T18:12:43.831Z,0.00
2023-02-02T18:14:46.754Z,0.00
2023-02-02T18:16:48.468Z,0.00
2023-02-02T18:18:50.017Z,1.00
2023-02-02T18:20:51.821Z,0.00
2023-02-02T18:22:53.560Z,1.00
2023-02-02T18:24:55.380Z,0.00
2023-02-02T18:26:57.013Z,0.00
2023-02-02T18:28:58.667Z,1.00
2023-02-02T18:31:07.734Z,1.00
2023-02-02T18:33:10.362Z,1.00
2023-02-02T18:35:12.638Z,0.00
2023-02-02T18:37:14.393Z,0.00
2023-02-02T18:39:17.132Z,1.00
2023-02-02T18:41:19.234Z,0.00
2023-02-02T18:43:20.959Z,0.00
2023-02-02T18:45:22.679Z,0.33
2023-02-02T18:47:26.037Z,0.00
2023-02-02T18:49:27.673Z,0.33
2023-02-02T18:51:29.291Z,0.00
2023-02-02T18:53:31.372Z,1.00
2023-02-02T18:55:32.941Z,1.00
2023-02-02T18:57:34.527Z,1.00
2023-02-02T18:59:36.181Z,1.00
2023-02-02T19:01:38.143Z,0.00
2023-02-02T19:03:41.505Z,0.00
2023-02-02T19:05:43.096Z,0.00
2023-02-02T19:07:44.857Z,0.67
2023-02-02T19:09:46.751Z,1.00
2023-02-02T19:11:51.014Z,0.00
2023-02-02T19:13:52.918Z,1.00
2023-02-02T19:15:55.435Z,1.00
2023-02-02T19:17:57.056Z,2.00
2023-02-02T19:20:09.608Z,1.00
2023-02-02T19:22:19.696Z,1.00
2023-02-02T19:24:21.575Z,1.00
2023-02-02T19:26:26.388Z,0.33
2023-02-02T19:28:29.948Z,1.00
2023-02-02T19:30:32.899Z,1.67
2023-02-02T19:32:38.986Z,1.00
2023-02-02T19:34:40.869Z,1.00
2023-02-02T19:36:45.101Z,1.00
2023-02-02T19:38:48.195Z,1.00
2023-02-02T19:40:49.719Z,0.00
2023-02-02T19:42:55.850Z,1.00
2023-02-02T19:44:57.429Z,1.67
2023-02-02T19:46:58.946Z,1.00
2023-02-02T19:49:04.918Z,0.67
2023-02-02T19:51:31.979Z,1.00
2023-02-02T19:53:37.955Z,1.00
2023-02-02T19:55:41.404Z,1.00
2023-02-02T19:57:43.228Z,2.00
2023-02-02T19:59:47.857Z,1.00
2023-02-02T20:01:49.539Z,2.67
2023-02-02T20:03:51.056Z,9.00
2023-02-02T20:05:55.353Z,1.00
2023-02-02T20:08:00.946Z,1.00
2023-02-02T20:10:17.861Z,1.00
2023-02-02T20:12:28.220Z,1.00
2023-02-02T20:14:32.517Z,0.00
2023-02-02T20:16:38.013Z,1.00
2023-02-02T20:18:42.427Z,0.67
2023-02-02T20:20:47.535Z,0.33
2023-02-02T20:22:49.239Z,0.67
2023-02-02T20:24:51.142Z,1.00
2023-02-02T20:26:57.531Z,2.00
2023-02-02T20:29:02.095Z,0.00
2023-02-02T20:31:11.262Z,0.00
2023-02-02T20:33:23.199Z,0.33
2023-02-02T20:35:33.906Z,1.00
2023-02-02T20:37:36.260Z,0.00
2023-02-02T20:39:42.866Z,2.00
2023-02-02T20:41:45.094Z,1.00
2023-02-02T20:43:48.076Z,1.00
2023-02-02T20:45:50.591Z,1.25
2023-02-02T20:47:52.454Z,1.67
2023-02-02T20:49:53.984Z,2.00
2023-02-02T20:51:57.432Z,2.00
2023-02-02T20:53:59.032Z,1.75
2023-02-02T20:56:00.639Z,2.00
2023-02-02T20:58:02.623Z,4.50
2023-02-02T21:00:08.689Z,4.00
2023-02-02T21:02:14.546Z,3.75
2023-02-02T21:04:16.391Z,4.50
2023-02-02T21:06:20.845Z,4.25
2023-02-02T21:08:22.589Z,3.00
2023-02-02T21:10:26.554Z,5.25
2023-02-02T21:12:28.304Z,4.75
2023-02-02T21:14:29.898Z,6.00
2023-02-02T21:16:33.056Z,6.00
2023-02-02T21:18:34.585Z,5.50
2023-02-02T21:20:36.606Z,6.75
2023-02-02T21:22:38.184Z,6.25
2023-02-02T21:24:40.164Z,6.50
2023-02-02T21:26:41.791Z,6.00
2023-02-02T21:28:43.603Z,6.75
2023-02-02T21:30:45.481Z,10.25
2023-02-02T21:32:48.606Z,6.00
2023-02-02T21:34:50.448Z,0.75
2023-02-02T21:36:54.669Z,7.00
2023-02-02T21:39:02.543Z,5.25
2023-02-02T21:41:13.137Z,5.50
2023-02-02T21:43:18.073Z,4.75
2023-02-02T21:45:30.439Z,6.00
2023-02-02T21:47:34.780Z,5.00
2023-02-02T21:49:39.648Z,6.00
2023-02-02T21:51:42.377Z,4.50
2023-02-02T21:53:44.046Z,8.25
2023-02-02T21:55:47.462Z,7.75
2023-02-02T21:57:49.150Z,8.00
2023-02-02T21:59:55.237Z,6.00
2023-02-02T22:01:57.074Z,7.50
2023-02-02T22:03:58.784Z,8.75
2023-02-02T22:06:21.516Z,8.50
2023-02-02T22:08:25.082Z,7.25
2023-02-02T22:10:45.191Z,9.00
2023-02-02T22:12:46.784Z,8.75
2023-02-02T22:14:52.841Z,8.50
2023-02-02T22:16:59.552Z,8.50
2023-02-02T22:19:01.252Z,7.00
2023-02-02T22:21:06.643Z,8.75
2023-02-02T22:23:09.863Z,8.25
2023-02-02T22:25:28.462Z,8.75
2023-02-02T22:27:40.716Z,8.25
2023-02-02T22:29:42.578Z,9.00
2023-02-02T22:31:44.408Z,6.50
2023-02-02T22:33:46.028Z,6.00
2023-02-02T22:35:48.811Z,5.25
2023-02-02T22:37:51.678Z,4.25
2023-02-02T22:39:53.425Z,3.25
2023-02-02T22:41:55.004Z,3.50
2023-02-02T22:43:56.566Z,2.00
2023-02-02T22:45:58.307Z,1.50
2023-02-02T22:48:00.219Z,2.50
2023-02-02T22:50:01.943Z,4.25
2023-02-02T22:52:03.903Z,2.00
2023-02-02T22:54:07.105Z,2.00
2023-02-02T22:56:08.695Z,4.00
2023-02-02T22:58:10.327Z,1.00
2023-02-02T23:00:14.337Z,1.25
2023-02-02T23:02:15.927Z,4.00
2023-02-02T23:04:17.467Z,2.00
2023-02-02T23:06:19.084Z,1.00
2023-02-02T23:08:20.647Z,1.75
2023-02-02T23:10:25.675Z,2.00
2023-02-02T23:12:27.736Z,1.00
2023-02-02T23:14:29.489Z,1.25
2023-02-02T23:16:31.172Z,1.33
2023-02-02T23:18:32.773Z,1.00
2023-02-02T23:20:34.576Z,0.00
2023-02-02T23:22:36.387Z,1.00
2023-02-02T23:24:39.410Z,1.00
2023-02-02T23:26:42.905Z,0.00
2023-02-02T23:28:44.558Z,1.00
2023-02-02T23:30:46.581Z,0.67
2023-02-02T23:32:48.444Z,0.67
2023-02-02T23:34:50.109Z,1.00
2023-02-02T23:36:51.703Z,0.00
2023-02-02T23:38:53.384Z,0.33
2023-02-02T23:40:55.262Z,0.00
2023-02-02T23:42:58.379Z,0.00
2023-02-02T23:45:00.137Z,0.00
2023-02-02T23:47:02.248Z,1.00
2023-02-02T23:49:04.221Z,0.33
2023-02-02T23:51:06.278Z,0.00
2023-02-02T23:53:09.860Z,0.00
2023-02-02T23:55:11.892Z,0.00
2023-02-02T23:57:14.202Z,0.00
2023-02-02T23:59:17.295Z,1.00
